Time;durP1;ratioP1;P1;durP2;ratioP2;P2;SDS_P1;SDS_P2;PMS_P1;PMS_P2;Temp;Humidity;BMP_temperature;BMP_pressure;BME280_temperature;BME280_humidity;BME280_pressure;Samples;Min_cycle;Max_cycle;Signal;HPM_P1;HPM_P2
2022/05/19 00:01:17;;;;;;;6.07;5.47;;;17.60;1.00;;;;;;5070131;28;20468;-83
2022/05/19 00:03:43;;;;;;;5.70;5.03;;;17.50;1.00;;;;;;5069441;28;20428;-83
2022/05/19 00:06:11;;;;;;;6.77;5.73;;;17.50;1.00;;;;;;5065400;28;20462;-81
2022/05/19 00:08:38;;;;;;;6.50;5.60;;;17.40;1.00;;;;;;5065835;28;20471;-82
2022/05/19 00:11:09;;;;;;;5.77;4.93;;;17.40;1.00;;;;;;5068532;28;20494;-83
2022/05/19 00:13:36;;;;;;;5.43;4.93;;;17.40;1.00;;;;;;5063809;28;20467;-83
2022/05/19 00:16:05;;;;;;;5.73;5.20;;;17.30;1.00;;;;;;5070584;28;20533;-83
2022/05/19 00:18:32;;;;;;;6.60;5.90;;;17.30;1.00;;;;;;5068293;28;20470;-82
2022/05/19 00:20:59;;;;;;;6.40;5.33;;;17.30;1.00;;;;;;5066064;28;20505;-83
2022/05/19 00:23:26;;;;;;;7.53;5.10;;;17.20;1.00;;;;;;5068004;28;20533;-82
2022/05/19 00:25:52;;;;;;;6.30;5.53;;;17.30;1.00;;;;;;5067782;28;20892;-83
2022/05/19 00:28:20;;;;;;;8.33;5.40;;;17.20;1.00;;;;;;5069571;28;20501;-84
2022/05/19 00:30:47;;;;;;;5.73;5.23;;;17.20;1.00;;;;;;5070222;28;20514;-83
2022/05/19 00:33:14;;;;;;;7.70;5.30;;;17.10;1.00;;;;;;5067272;28;20479;-84
2022/05/19 00:35:41;;;;;;;8.10;6.10;;;17.10;1.00;;;;;;5069487;28;20522;-83
2022/05/19 00:38:09;;;;;;;5.87;5.27;;;17.10;1.00;;;;;;5071031;28;20645;-83
2022/05/19 00:40:36;;;;;;;6.10;5.50;;;17.00;1.00;;;;;;5070224;28;20463;-84
2022/05/19 00:43:04;;;;;;;7.20;5.93;;;17.10;1.00;;;;;;5072963;28;20510;-81
2022/05/19 00:45:43;;;;;;;8.83;5.80;;;17.00;1.00;;;;;;5068943;28;20455;-83
2022/05/19 00:48:16;;;;;;;5.93;5.33;;;17.00;1.00;;;;;;5065287;28;20507;-80
2022/05/19 00:50:46;;;;;;;6.93;5.70;;;16.90;1.00;;;;;;5068236;28;20447;-83
2022/05/19 00:53:24;;;;;;;9.90;5.73;;;16.80;1.00;;;;;;5065543;28;20490;-83
2022/05/19 00:55:52;;;;;;;7.13;6.10;;;16.80;1.00;;;;;;5069875;28;20979;-83
2022/05/19 00:58:24;;;;;;;7.97;5.40;;;16.80;1.00;;;;;;5066930;28;20665;-82
2022/05/19 01:00:52;;;;;;;5.90;5.30;;;16.80;1.00;;;;;;5069806;28;20459;-82
2022/05/19 01:03:20;;;;;;;6.60;6.00;;;16.80;1.00;;;;;;5067810;28;20545;-83
2022/05/19 01:05:50;;;;;;;6.27;5.53;;;16.70;1.00;;;;;;5068042;28;20517;-83
2022/05/19 01:08:25;;;;;;;8.47;5.40;;;16.70;1.00;;;;;;5068224;28;20505;-82
2022/05/19 01:10:53;;;;;;;6.43;5.63;;;16.70;1.00;;;;;;5070378;28;20452;-83
2022/05/19 01:13:20;;;;;;;5.67;5.07;;;16.70;1.00;;;;;;5070458;28;20463;-84
2022/05/19 01:15:50;;;;;;;6.60;5.60;;;16.60;1.00;;;;;;5067369;28;20697;-83
2022/05/19 01:18:19;;;;;;;9.10;5.27;;;16.60;1.00;;;;;;5064918;28;20475;-81
2022/05/19 01:20:47;;;;;;;6.20;5.00;;;16.50;1.00;;;;;;5064589;28;20455;-83
2022/05/19 01:23:24;;;;;;;5.93;5.10;;;16.50;1.00;;;;;;5065597;28;20926;-84
2022/05/19 01:26:01;;;;;;;6.00;5.07;;;16.50;1.00;;;;;;5063855;28;20458;-84
2022/05/19 01:28:30;;;;;;;5.30;4.50;;;16.50;1.00;;;;;;5063486;28;20557;-84
2022/05/19 01:30:57;;;;;;;6.80;5.00;;;16.50;1.00;;;;;;5067099;28;20533;-82
2022/05/19 01:33:25;;;;;;;5.40;4.90;;;16.40;1.00;;;;;;5066633;28;20475;-82
2022/05/19 01:35:52;;;;;;;5.63;5.13;;;16.40;1.00;;;;;;5069758;28;20459;-81
2022/05/19 01:38:24;;;;;;;6.13;5.43;;;16.40;1.00;;;;;;5067618;28;20483;-82
2022/05/19 01:41:02;;;;;;;5.77;5.20;;;16.30;1.00;;;;;;5071472;28;20550;-83
2022/05/19 01:43:39;;;;;;;8.77;5.57;;;16.30;1.00;;;;;;5067537;28;20474;-83
2022/05/19 01:46:13;;;;;;;7.30;5.40;;;16.20;1.00;;;;;;5059390;28;20563;-83
2022/05/19 01:48:47;;;;;;;5.47;4.97;;;16.20;1.00;;;;;;5070456;28;20458;-83
2022/05/19 01:51:21;;;;;;;6.43;5.30;;;16.20;1.00;;;;;;5072041;28;21265;-82
2022/05/19 01:53:54;;;;;;;5.73;5.23;;;16.10;1.00;;;;;;5068742;28;20907;-82
2022/05/19 01:56:29;;;;;;;5.80;5.00;;;16.10;1.00;;;;;;5065141;28;20467;-81
2022/05/19 01:59:06;;;;;;;6.80;5.00;;;16.10;1.00;;;;;;5069066;28;20963;-82
2022/05/19 02:01:33;;;;;;;5.73;5.17;;;16.00;1.00;;;;;;5067998;28;20506;-82
2022/05/19 02:04:06;;;;;;;6.77;5.03;;;16.00;1.00;;;;;;5064237;28;20471;-81
2022/05/19 02:06:40;;;;;;;6.87;5.20;;;16.00;1.00;;;;;;5041148;28;20977;-81
2022/05/19 02:09:12;;;;;;;16.60;14.87;;;16.00;1.00;;;;;;5063758;28;20471;-80
2022/05/19 02:11:44;;;;;;;4.87;4.27;;;15.90;1.00;;;;;;5065190;28;20642;-81
2022/05/19 02:14:16;;;;;;;7.20;5.00;;;15.90;1.00;;;;;;5067447;28;20435;-80
2022/05/19 02:16:48;;;;;;;5.90;5.00;;;15.90;1.00;;;;;;5064744;28;20428;-82
2022/05/19 02:19:20;;;;;;;5.90;4.63;;;15.80;1.00;;;;;;5066604;28;20518;-81
2022/05/19 02:21:46;;;;;;;6.33;4.90;;;15.80;1.00;;;;;;5067214;28;20908;-80
2022/05/19 02:24:19;;;;;;;5.67;5.17;;;15.80;1.00;;;;;;5066778;28;20477;-81
2022/05/19 02:26:46;;;;;;;7.00;5.37;;;15.80;1.00;;;;;;5065508;28;20491;-80
2022/05/19 02:29:19;;;;;;;8.47;5.10;;;15.80;1.00;;;;;;5066064;28;20544;-82
2022/05/19 02:31:47;;;;;;;7.23;5.97;;;15.80;1.00;;;;;;5061037;28;20497;-81
2022/05/19 02:34:15;;;;;;;7.90;4.87;;;15.70;1.00;;;;;;5063350;28;20643;-81
2022/05/19 02:36:42;;;;;;;8.07;5.20;;;15.60;1.00;;;;;;5072318;28;20463;-77
2022/05/19 02:39:11;;;;;;;5.43;4.93;;;15.60;1.00;;;;;;5072297;28;20621;-81
2022/05/19 02:41:38;;;;;;;5.80;5.20;;;15.60;1.00;;;;;;5069279;28;20480;-78
2022/05/19 02:44:10;;;;;;;7.50;5.87;;;15.60;1.00;;;;;;5066658;28;20537;-81
2022/05/19 02:46:38;;;;;;;6.43;5.47;;;15.60;1.00;;;;;;5066632;28;20880;-80
2022/05/19 02:49:09;;;;;;;6.43;5.83;;;15.60;1.00;;;;;;5069873;28;20450;-80
2022/05/19 02:51:38;;;;;;;5.77;4.87;;;15.50;1.00;;;;;;5070257;28;21084;-79
2022/05/19 02:54:10;;;;;;;7.43;5.60;;;15.50;1.00;;;;;;5066083;28;21357;-81
2022/05/19 02:56:38;;;;;;;8.10;5.60;;;15.40;1.00;;;;;;5066148;28;20997;-79
2022/05/19 02:59:10;;;;;;;5.87;5.23;;;15.40;1.00;;;;;;5072091;28;20463;-82
2022/05/19 03:01:40;;;;;;;6.13;5.43;;;15.40;1.00;;;;;;5066652;28;20452;-78
2022/05/19 03:04:10;;;;;;;6.10;5.20;;;15.40;1.00;;;;;;5074388;28;20443;-80
2022/05/19 03:06:37;;;;;;;6.23;4.63;;;15.30;1.00;;;;;;5071932;28;20463;-81
2022/05/19 03:09:05;;;;;;;6.47;5.67;;;15.30;1.00;;;;;;5075620;28;21287;-80
2022/05/19 03:11:33;;;;;;;6.33;5.73;;;15.30;1.00;;;;;;5076573;28;20593;-82
2022/05/19 03:14:02;;;;;;;6.37;5.77;;;15.30;1.00;;;;;;5067753;28;20651;-78
2022/05/19 03:16:30;;;;;;;6.10;5.50;;;15.30;1.00;;;;;;5072628;28;20429;-83
2022/05/19 03:19:02;;;;;;;6.93;6.00;;;15.30;1.00;;;;;;5076566;28;20480;-78
2022/05/19 03:21:30;;;;;;;4.67;4.27;;;15.20;1.00;;;;;;5075960;28;20493;-81
2022/05/19 03:24:00;;;;;;;5.67;5.17;;;15.20;1.00;;;;;;5074682;28;20443;-81
2022/05/19 03:26:30;;;;;;;7.47;5.33;;;15.20;1.00;;;;;;5075836;28;20493;-79
2022/05/19 03:29:01;;;;;;;7.47;5.40;;;15.20;1.00;;;;;;5075627;28;20465;-81
2022/05/19 03:31:31;;;;;;;6.80;6.20;;;15.20;1.00;;;;;;5078147;28;20419;-81
2022/05/19 03:33:57;;;;;;;8.93;5.00;;;15.20;1.00;;;;;;5073391;28;20457;-77
2022/05/19 03:36:30;;;;;;;6.60;6.00;;;15.20;1.00;;;;;;5073464;28;20476;-81
2022/05/19 03:38:57;;;;;;;9.00;6.50;;;15.20;1.00;;;;;;5072488;28;20473;-80
2022/05/19 03:41:23;;;;;;;6.23;5.63;;;15.20;1.00;;;;;;5078156;28;20469;-79
2022/05/19 03:43:52;;;;;;;7.00;5.80;;;15.20;1.00;;;;;;5081269;28;20488;-78
2022/05/19 03:46:22;;;;;;;6.87;5.33;;;15.20;1.00;;;;;;5077620;28;20416;-84
2022/05/19 03:48:51;;;;;;;6.70;6.10;;;15.20;1.00;;;;;;5049199;28;20439;-81
2022/05/19 03:51:23;;;;;;;5.90;5.40;;;15.10;1.00;;;;;;5069102;28;20484;-79
2022/05/19 03:53:59;;;;;;;7.47;5.77;;;15.20;1.00;;;;;;5080161;28;20463;-82
2022/05/19 03:56:37;;;;;;;10.97;6.37;;;15.10;1.00;;;;;;5074454;28;20431;-78
2022/05/19 03:59:10;;;;;;;6.70;6.03;;;15.10;1.00;;;;;;5076438;28;20477;-78
2022/05/19 04:01:37;;;;;;;8.87;6.67;;;15.20;1.00;;;;;;5064249;28;20461;-81
2022/05/19 04:04:11;;;;;;;8.93;6.60;;;15.20;1.00;;;;;;5065117;28;20503;-83
2022/05/19 04:06:38;;;;;;;5.53;5.03;;;15.20;1.00;;;;;;5074526;28;20434;-80
2022/05/19 04:09:11;;;;;;;6.43;5.83;;;15.20;1.00;;;;;;5075146;28;20442;-80
2022/05/19 04:11:37;;;;;;;6.47;5.67;;;15.30;1.00;;;;;;5071268;28;20536;-77
2022/05/19 04:14:11;;;;;;;8.30;7.03;;;15.20;1.00;;;;;;5066181;28;20891;-81
2022/05/19 04:16:40;;;;;;;5.70;5.20;;;15.20;1.00;;;;;;5073024;28;20491;-80
2022/05/19 04:19:10;;;;;;;9.70;6.10;;;15.20;1.00;;;;;;5075420;28;20488;-81
2022/05/19 04:21:37;;;;;;;5.30;4.77;;;15.30;1.00;;;;;;5070504;28;20953;-79
2022/05/19 04:24:13;;;;;;;5.73;4.97;;;15.30;1.00;;;;;;5070727;28;20521;-79
2022/05/19 04:26:41;;;;;;;9.07;5.67;;;15.30;1.00;;;;;;5071334;28;20593;-84
2022/05/19 04:29:11;;;;;;;8.43;6.87;;;15.30;1.00;;;;;;5071442;28;20677;-84
2022/05/19 04:31:39;;;;;;;6.03;5.33;;;15.30;1.00;;;;;;5066376;28;20530;-82
2022/05/19 04:34:13;;;;;;;5.83;5.23;;;15.20;1.00;;;;;;5073689;28;20444;-81
2022/05/19 04:36:41;;;;;;;6.73;5.73;;;15.20;1.00;;;;;;5079540;28;20419;-83
2022/05/19 04:39:13;;;;;;;8.00;7.33;;;15.20;1.00;;;;;;5076963;28;20469;-83
2022/05/19 04:41:41;;;;;;;6.83;5.40;;;15.30;1.00;;;;;;5079634;28;20425;-84
2022/05/19 04:44:13;;;;;;;8.17;6.07;;;15.30;1.00;;;;;;5073269;28;20418;-76
2022/05/19 04:46:44;;;;;;;11.93;7.87;;;15.30;1.00;;;;;;5064976;28;20502;-82
2022/05/19 04:49:11;;;;;;;6.20;5.60;;;15.30;1.00;;;;;;5067343;28;22182;-78
2022/05/19 04:51:41;;;;;;;7.90;6.03;;;15.30;1.00;;;;;;5080521;28;20412;-76
2022/05/19 04:54:12;;;;;;;6.00;5.43;;;15.40;1.00;;;;;;5058073;28;20465;-80
2022/05/19 04:56:41;;;;;;;6.67;5.53;;;15.50;1.00;;;;;;5069053;28;20606;-77
2022/05/19 04:59:14;;;;;;;7.33;5.90;;;15.50;1.00;;;;;;5079465;28;20435;-78
2022/05/19 05:01:49;;;;;;;6.03;5.43;;;15.60;1.00;;;;;;5073935;28;20441;-77
2022/05/19 05:04:21;;;;;;;5.40;5.00;;;15.70;1.00;;;;;;5067419;28;20440;-78
2022/05/19 05:06:51;;;;;;;5.93;5.33;;;15.70;1.00;;;;;;5067405;28;20454;-77
2022/05/19 05:09:22;;;;;;;8.53;5.87;;;15.70;1.00;;;;;;5065367;28;20461;-80
2022/05/19 05:11:51;;;;;;;6.67;5.93;;;15.80;1.00;;;;;;5074367;28;20531;-78
2022/05/19 05:14:22;;;;;;;6.73;5.60;;;15.90;1.00;;;;;;5072463;28;20447;-80
2022/05/19 05:16:53;;;;;;;8.03;5.50;;;16.00;1.00;;;;;;5073961;28;20440;-79
2022/05/19 05:19:23;;;;;;;6.27;5.53;;;16.20;1.00;;;;;;5067458;28;20483;-78
2022/05/19 05:21:53;;;;;;;9.93;6.63;;;16.20;1.00;;;;;;5057076;28;20562;-78
2022/05/19 05:24:25;;;;;;;7.20;6.07;;;16.30;1.00;;;;;;5072750;28;20455;-78
2022/05/19 05:26:52;;;;;;;8.27;6.20;;;16.50;1.00;;;;;;5065014;28;20467;-78
2022/05/19 05:29:21;;;;;;;8.50;6.40;;;16.60;1.00;;;;;;5067957;28;21362;-77
2022/05/19 05:31:50;;;;;;;14.27;10.43;;;16.70;1.00;;;;;;5078923;28;20427;-76
2022/05/19 05:34:17;;;;;;;6.03;5.43;;;16.90;1.00;;;;;;5071945;28;21008;-79
2022/05/19 05:36:49;;;;;;;6.30;5.40;;;17.00;1.00;;;;;;5074801;28;20545;-77
2022/05/19 05:39:32;;;;;;;11.63;5.70;;;17.20;1.00;;;;;;5079609;28;20438;-79
2022/05/19 05:42:04;;;;;;;8.50;5.17;;;17.40;1.00;;;;;;5081896;28;20469;-80
2022/05/19 05:44:31;;;;;;;8.57;5.60;;;17.50;1.00;;;;;;5075429;28;20475;-78
2022/05/19 05:47:01;;;;;;;6.33;4.93;;;17.60;1.00;;;;;;5078834;28;20463;-76
2022/05/19 05:49:31;;;;;;;7.30;6.47;;;17.80;1.00;;;;;;5077859;28;20476;-79
2022/05/19 05:51:59;;;;;;;9.63;5.40;;;18.00;1.00;;;;;;5075611;28;20464;-78
2022/05/19 05:54:31;;;;;;;10.53;5.43;;;18.10;1.00;;;;;;5076250;28;21736;-80
2022/05/19 05:56:58;;;;;;;7.30;5.60;;;18.30;1.00;;;;;;5072961;28;20600;-80
2022/05/19 05:59:31;;;;;;;11.50;8.00;;;18.40;1.00;;;;;;5062875;28;20586;-80
2022/05/19 06:01:57;;;;;;;6.23;5.10;;;18.50;1.00;;;;;;5073323;28;20700;-77
2022/05/19 06:04:26;;;;;;;7.10;5.90;;;18.50;1.00;;;;;;5065603;28;21686;-79
2022/05/19 06:06:53;;;;;;;6.00;5.03;;;18.50;1.00;;;;;;5071714;28;20459;-81
2022/05/19 06:09:20;;;;;;;6.70;5.40;;;18.70;1.00;;;;;;5067717;28;20494;-75
2022/05/19 06:11:51;;;;;;;5.67;4.80;;;18.90;1.00;;;;;;5074305;28;20424;-76
2022/05/19 06:14:18;;;;;;;6.00;5.33;;;19.00;1.00;;;;;;5070671;28;20463;-77
2022/05/19 06:16:52;;;;;;;6.17;5.57;;;19.00;1.00;;;;;;5078462;28;20450;-79
2022/05/19 06:19:19;;;;;;;34.93;31.20;;;19.10;1.00;;;;;;5065692;28;20439;-81
2022/05/19 06:21:51;;;;;;;9.33;6.83;;;19.20;1.00;;;;;;5064861;28;20460;-79
2022/05/19 06:24:18;;;;;;;6.17;5.30;;;19.40;1.00;;;;;;5071414;28;20438;-78
2022/05/19 06:26:45;;;;;;;7.13;5.77;;;19.60;1.00;;;;;;5072549;28;20452;-79
2022/05/19 06:29:12;;;;;;;6.53;5.80;;;19.60;1.00;;;;;;5063502;28;20561;-77
2022/05/19 06:31:39;;;;;;;9.47;5.40;;;19.70;1.00;;;;;;5076001;28;20476;-77
2022/05/19 06:34:11;;;;;;;7.40;5.63;;;19.80;1.00;;;;;;5068636;28;20528;-77
2022/05/19 06:36:38;;;;;;;7.50;5.50;;;19.70;1.00;;;;;;5071737;28;20558;-80
2022/05/19 06:39:09;;;;;;;10.00;5.77;;;19.80;1.00;;;;;;5070260;28;20463;-79
2022/05/19 06:44:20;;;;;;;8.00;5.90;;;20.10;1.00;;;;;;5071303;28;20909;-79
2022/05/19 06:46:51;;;;;;;7.57;5.70;;;20.20;1.00;;;;;;5072690;28;20455;-80
2022/05/19 06:49:19;;;;;;;7.83;6.00;;;20.30;1.00;;;;;;5067122;28;20467;-80
2022/05/19 06:51:50;;;;;;;6.57;5.80;;;20.40;1.00;;;;;;5074834;28;20423;-79
2022/05/19 06:54:17;;;;;;;6.60;5.60;;;20.30;1.00;;;;;;5068708;28;20884;-81
2022/05/19 06:56:43;;;;;;;6.20;5.53;;;20.30;1.00;;;;;;5062621;28;20479;-79
2022/05/19 06:59:14;;;;;;;9.20;6.10;;;20.20;1.00;;;;;;5071605;28;21316;-81
2022/05/19 07:01:42;;;;;;;6.80;5.50;;;20.40;1.00;;;;;;5045655;28;20448;-79
2022/05/19 07:04:11;;;;;;;10.00;5.80;;;20.50;1.00;;;;;;5071479;28;20547;-80
2022/05/19 07:06:41;;;;;;;6.80;5.80;;;20.60;1.00;;;;;;5075915;28;20455;-80
2022/05/19 07:09:12;;;;;;;9.27;5.63;;;20.60;1.00;;;;;;5075850;28;20495;-79
2022/05/19 07:11:41;;;;;;;7.60;5.83;;;20.70;1.00;;;;;;5071701;28;20617;-80
2022/05/19 07:14:12;;;;;;;6.50;5.60;;;20.80;1.00;;;;;;5076992;28;20439;-81
2022/05/19 07:16:43;;;;;;;6.10;5.50;;;20.90;1.00;;;;;;5078369;28;20517;-80
2022/05/19 07:22:01;;;;;;;9.47;5.30;;;21.20;1.00;;;;;;5073654;28;20463;-82
2022/05/19 07:24:31;;;;;;;6.33;5.73;;;21.30;1.00;;;;;;5077463;28;20529;-81
2022/05/19 07:27:10;;;;;;;7.10;6.27;;;21.40;1.00;;;;;;5064442;28;20475;-80
2022/05/19 07:29:36;;;;;;;8.57;5.53;;;21.50;1.00;;;;;;5069507;28;20497;-81
2022/05/19 07:32:08;;;;;;;7.80;6.07;;;21.50;1.00;;;;;;5072571;28;20464;-81
2022/05/19 07:34:43;;;;;;;8.43;5.97;;;21.50;1.00;;;;;;5073828;28;20434;-80
2022/05/19 07:37:12;;;;;;;8.20;7.07;;;21.60;1.00;;;;;;5076379;28;20428;-80
2022/05/19 07:39:42;;;;;;;6.77;5.50;;;21.60;1.00;;;;;;5080232;28;20420;-79
2022/05/19 07:42:12;;;;;;;6.83;5.97;;;21.70;1.00;;;;;;5067255;28;20436;-80
2022/05/19 07:44:38;;;;;;;8.17;6.30;;;21.90;1.00;;;;;;5065477;28;20558;-80
2022/05/19 07:47:15;;;;;;;10.47;6.10;;;22.00;1.00;;;;;;5073408;28;20478;-81
2022/05/19 07:49:42;;;;;;;13.87;6.30;;;22.20;1.00;;;;;;5067439;28;20528;-79
2022/05/19 07:52:13;;;;;;;8.40;6.17;;;22.40;1.00;;;;;;5070038;28;20611;-80
2022/05/19 07:54:40;;;;;;;6.70;6.00;;;22.50;1.00;;;;;;5072078;28;20533;-78
2022/05/19 07:57:11;;;;;;;8.68;6.20;;;22.50;1.00;;;;;;5074910;28;20479;-79
2022/05/19 07:59:38;;;;;;;7.07;5.80;;;22.50;1.00;;;;;;5079743;28;20243;-85
2022/05/19 08:02:12;;;;;;;6.53;5.80;;;22.60;1.00;;;;;;5082818;28;20867;-80
2022/05/19 08:04:40;;;;;;;8.80;6.40;;;22.80;1.00;;;;;;5073450;28;20423;-75
2022/05/19 08:07:08;;;;;;;6.80;6.00;;;22.90;1.00;;;;;;5074407;28;21178;-80
2022/05/19 08:18:11;;;;;;;6.43;5.83;;;23.60;1.00;;;;;;5082894;28;20456;-79
2022/05/19 08:20:43;;;;;;;7.13;6.03;;;23.80;1.00;;;;;;5077310;28;20545;-78
2022/05/19 08:23:14;;;;;;;7.20;5.73;;;24.00;1.00;;;;;;5078953;28;20427;-79
2022/05/19 08:25:43;;;;;;;6.67;6.07;;;23.90;1.00;;;;;;5058077;28;20429;-79
2022/05/19 08:28:14;;;;;;;6.83;6.13;;;23.80;1.00;;;;;;5077477;28;20547;-79
2022/05/19 08:30:43;;;;;;;7.33;6.60;;;23.80;1.00;;;;;;5083116;28;20630;-80
2022/05/19 08:33:11;;;;;;;10.37;6.07;;;23.90;1.00;;;;;;5080902;28;20423;-79
2022/05/19 08:35:41;;;;;;;10.20;6.30;;;24.00;1.00;;;;;;5081125;28;20424;-79
2022/05/19 08:38:11;;;;;;;7.13;5.83;;;24.00;1.00;;;;;;5079345;28;20475;-80
2022/05/19 08:40:45;;;;;;;7.30;6.10;;;24.10;1.00;;;;;;5074783;28;20485;-79
2022/05/19 08:43:20;;;;;;;8.53;6.40;;;24.20;1.00;;;;;;5075185;28;20480;-80
2022/05/19 08:45:58;;;;;;;6.53;5.80;;;24.30;1.00;;;;;;5081106;28;20526;-79
2022/05/19 08:48:32;;;;;;;6.73;6.03;;;24.40;1.00;;;;;;5068045;28;20448;-79
2022/05/19 08:51:02;;;;;;;6.67;5.97;;;24.50;1.00;;;;;;5074803;28;20566;-82
2022/05/19 08:53:33;;;;;;;7.73;5.83;;;24.60;1.00;;;;;;5067865;28;20468;-81
2022/05/19 08:56:11;;;;;;;9.13;6.10;;;24.70;1.00;;;;;;5069256;28;20429;-80
2022/05/19 08:58:57;;;;;;;11.43;6.33;;;24.90;1.00;;;;;;5072280;28;20870;-80
2022/05/19 09:01:33;;;;;;;9.90;6.53;;;25.10;1.00;;;;;;5073634;28;20483;-79
2022/05/19 09:04:23;;;;;;;6.60;5.23;;;25.20;1.00;;;;;;5067928;28;20501;-78
2022/05/19 09:10:03;;;;;;;6.27;5.30;;;25.60;1.00;;;;;;5075949;28;20424;-79
2022/05/19 09:12:41;;;;;;;7.20;5.87;;;25.70;1.00;;;;;;5078807;28;20419;-79
2022/05/19 09:15:12;;;;;;;12.70;5.30;;;25.80;1.00;;;;;;5079336;28;20443;-79
2022/05/19 09:17:48;;;;;;;6.30;4.87;;;26.00;1.00;;;;;;5068364;28;20463;-78
2022/05/19 09:20:22;;;;;;;7.30;5.40;;;26.10;1.00;;;;;;5059649;28;20449;-79
2022/05/19 09:22:52;;;;;;;8.67;5.97;;;26.40;1.00;;;;;;5067476;28;20456;-80
2022/05/19 09:25:23;;;;;;;7.23;5.40;;;26.60;1.00;;;;;;5070808;28;20428;-79
2022/05/19 09:27:52;;;;;;;8.97;5.00;;;27.10;1.00;;;;;;5069506;28;20479;-80
2022/05/19 09:30:31;;;;;;;6.80;5.33;;;27.50;1.00;;;;;;5071678;28;20423;-79
2022/05/19 09:33:15;;;;;;;6.83;5.30;;;28.70;1.00;;;;;;5077075;28;20447;-79
2022/05/19 09:35:51;;;;;;;6.33;4.90;;;30.40;1.00;;;;;;5068634;28;20451;-79
2022/05/19 09:38:31;;;;;;;7.47;4.50;;;32.10;1.00;;;;;;5065518;28;20497;-80
2022/05/19 09:41:03;;;;;;;6.10;4.37;;;33.30;1.00;;;;;;5073754;28;20503;-78
2022/05/19 09:43:36;;;;;;;5.83;3.97;;;34.10;1.00;;;;;;5069296;28;20513;-78
2022/05/19 09:46:11;;;;;;;7.70;4.63;;;34.80;1.00;;;;;;5066406;28;21061;-81
2022/05/19 09:48:44;;;;;;;6.90;3.80;;;35.50;1.00;;;;;;5031209;28;20423;-80
2022/05/19 09:51:14;;;;;;;8.20;4.67;;;36.20;1.00;;;;;;5077093;28;20539;-79
2022/05/19 09:53:53;;;;;;;6.90;3.87;;;36.30;1.00;;;;;;5073860;28;20969;-80
2022/05/19 09:56:24;;;;;;;6.20;3.97;;;35.60;1.00;;;;;;5080341;28;20485;-80
2022/05/19 09:59:03;;;;;;;8.67;4.23;;;35.10;1.00;;;;;;5079484;28;20436;-80
2022/05/19 10:01:41;;;;;;;7.00;4.40;;;34.70;1.00;;;;;;5075866;28;20419;-79
2022/05/19 10:04:21;;;;;;;8.00;4.23;;;34.00;1.00;;;;;;5077302;28;20719;-79
2022/05/19 10:07:01;;;;;;;6.53;4.50;;;33.90;1.00;;;;;;5073046;28;20422;-77
2022/05/19 10:09:34;;;;;;;8.43;5.33;;;33.30;1.00;;;;;;5073215;28;20455;-77
2022/05/19 10:12:12;;;;;;;5.20;4.10;;;33.70;1.00;;;;;;5077657;28;20499;-78
2022/05/19 10:14:43;;;;;;;5.80;4.00;;;34.10;1.00;;;;;;5075109;28;20675;-77
2022/05/19 10:17:30;;;;;;;6.50;3.80;;;34.40;1.00;;;;;;5071367;28;20423;-79
2022/05/19 10:20:11;;;;;;;7.17;4.43;;;34.80;1.00;;;;;;5073626;28;21059;-79
2022/05/19 10:23:04;;;;;;;6.90;3.90;;;35.60;1.00;;;;;;5072394;28;20431;-79
2022/05/19 10:25:43;;;;;;;7.70;5.20;;;35.80;1.00;;;;;;5071695;28;20439;-79
2022/05/19 10:31:30;;;;;;;6.60;3.87;;;34.80;1.00;;;;;;5074078;28;20428;-77
2022/05/19 10:34:12;;;;;;;6.50;3.60;;;35.50;1.00;;;;;;5073219;28;20428;-78
2022/05/19 10:36:50;;;;;;;9.20;4.83;;;36.20;1.00;;;;;;5064752;28;20502;-78
2022/05/19 10:39:35;;;;;;;7.27;4.30;;;36.40;1.00;;;;;;5070026;28;20424;-78
2022/05/19 10:42:14;;;;;;;8.70;4.27;;;36.10;1.00;;;;;;5080558;28;20431;-82
2022/05/19 10:45:23;;;;;;;6.83;3.70;;;36.10;1.00;;;;;;5086928;28;20427;-77
2022/05/19 10:48:12;;;;;;;7.00;3.90;;;36.60;1.00;;;;;;5070838;28;20440;-76
2022/05/19 10:50:44;;;;;;;6.50;4.40;;;36.70;1.00;;;;;;5079383;28;20545;-79
2022/05/19 10:53:30;;;;;;;9.07;4.20;;;37.20;1.00;;;;;;5075833;28;20590;-80
2022/05/19 10:56:21;;;;;;;7.47;4.00;;;36.60;1.00;;;;;;5078095;28;20586;-82
2022/05/19 10:59:12;;;;;;;6.60;4.00;;;36.20;1.00;;;;;;5079114;28;20529;-77
2022/05/19 11:02:01;;;;;;;6.97;4.20;;;36.30;1.00;;;;;;5083704;28;20432;-78
2022/05/19 11:08:16;;;;;;;6.13;4.20;;;37.20;1.00;;;;;;5109378;27;20550;-78
2022/05/19 11:10:55;;;;;;;6.67;3.97;;;37.20;1.00;;;;;;5117053;27;20528;-82
2022/05/19 11:13:44;;;;;;;9.13;4.43;;;36.30;1.00;;;;;;5106876;27;20433;-79
2022/05/19 11:16:21;;;;;;;7.83;4.13;;;35.30;1.00;;;;;;5109259;27;20482;-81
2022/05/19 11:19:02;;;;;;;6.20;4.00;;;34.60;1.00;;;;;;5109211;27;20428;-80
2022/05/19 11:21:41;;;;;;;8.67;4.57;;;35.00;1.00;;;;;;5107343;27;20419;-81
2022/05/19 11:24:22;;;;;;;6.20;3.57;;;36.00;1.00;;;;;;5087724;28;20427;-81
2022/05/19 11:27:04;;;;;;;8.27;4.43;;;36.60;1.00;;;;;;5096959;27;20403;-82
2022/05/19 11:29:44;;;;;;;6.77;4.10;;;37.60;1.00;;;;;;5082411;28;20522;-84
2022/05/19 11:32:22;;;;;;;8.03;4.40;;;38.30;1.00;;;;;;5080323;28;20435;-81
2022/05/19 11:35:01;;;;;;;7.40;4.30;;;38.30;1.00;;;;;;5087781;28;20415;-79
2022/05/19 11:37:33;;;;;;;9.00;4.00;;;37.90;1.00;;;;;;5093098;28;20521;-78
2022/05/19 11:40:14;;;;;;;7.13;3.67;;;38.10;1.00;;;;;;5091952;27;20447;-80
2022/05/19 11:42:58;;;;;;;7.30;4.17;;;38.20;1.00;;;;;;5090605;28;20418;-78
2022/05/19 11:45:34;;;;;;;6.83;3.70;;;37.40;1.00;;;;;;5091478;28;20458;-80
2022/05/19 11:57:11;;;;;;;11.23;4.70;;;35.70;1.00;;;;;;5087479;27;20634;-79
2022/05/19 11:59:53;;;;;;;7.23;4.00;;;35.70;1.00;;;;;;5072545;28;20431;-80
2022/05/19 12:02:28;;;;;;;6.93;3.20;;;35.80;1.00;;;;;;5072457;27;20427;-80
2022/05/19 12:05:10;;;;;;;6.57;3.63;;;35.30;1.00;;;;;;5079725;28;20469;-77
2022/05/19 12:08:01;;;;;;;6.40;3.50;;;35.40;1.00;;;;;;5096982;27;20433;-80
2022/05/19 12:10:36;;;;;;;6.80;3.67;;;35.90;1.00;;;;;;5105591;27;20472;-80
2022/05/19 12:13:32;;;;;;;6.87;3.33;;;36.80;1.00;;;;;;5110912;27;20484;-84
2022/05/19 12:16:13;;;;;;;6.53;3.10;;;38.10;1.00;;;;;;5113292;27;20448;-82
2022/05/19 12:19:01;;;;;;;7.10;3.53;;;39.40;1.00;;;;;;5117882;27;20461;-82
2022/05/19 12:21:55;;;;;;;9.30;3.90;;;39.80;1.00;;;;;;5103999;27;20402;-81
2022/05/19 12:24:36;;;;;;;7.43;3.37;;;40.00;1.00;;;;;;5108252;27;20480;-80
2022/05/19 12:27:14;;;;;;;6.83;3.60;;;40.20;1.00;;;;;;5113122;27;20446;-78
2022/05/19 12:29:54;;;;;;;6.30;3.30;;;39.80;1.00;;;;;;5113842;28;20522;-82
2022/05/19 12:32:23;;;;;;;7.10;4.10;;;39.80;1.00;;;;;;5105672;27;20474;-79
2022/05/19 12:35:00;;;;;;;9.50;3.70;;;39.10;1.00;;;;;;5107048;27;20608;-79
2022/05/19 12:37:43;;;;;;;7.07;4.00;;;39.10;1.00;;;;;;5109082;27;20497;-84
2022/05/19 12:40:30;;;;;;;5.90;3.47;;;39.10;1.00;;;;;;5107131;27;20465;-80
2022/05/19 12:43:16;;;;;;;6.23;3.50;;;39.40;1.00;;;;;;5104619;27;21187;-80
2022/05/19 12:45:50;;;;;;;7.93;3.30;;;39.90;1.00;;;;;;5106364;27;20524;-77
2022/05/19 12:48:40;;;;;;;7.00;3.30;;;40.30;1.00;;;;;;5115534;27;20458;-79
2022/05/19 12:51:24;;;;;;;6.23;3.50;;;40.40;1.00;;;;;;5114849;27;20481;-83
2022/05/19 12:54:12;;;;;;;8.00;3.70;;;40.50;1.00;;;;;;5110350;27;20439;-81
2022/05/19 12:57:30;;;;;;;7.40;3.70;;;41.10;1.00;;;;;;5105968;27;20791;-77
2022/05/19 13:00:19;;;;;;;8.70;4.90;;;41.00;1.00;;;;;;5082091;27;20430;-82
2022/05/19 13:02:59;;;;;;;7.50;3.60;;;40.80;1.00;;;;;;5114555;27;20771;-80
2022/05/19 13:05:44;;;;;;;6.93;3.27;;;40.80;1.00;;;;;;5101013;27;20567;-81
2022/05/19 13:08:15;;;;;;;7.60;4.10;;;41.40;1.00;;;;;;5109853;27;20448;-84
2022/05/19 13:10:52;;;;;;;7.40;3.90;;;41.70;1.00;;;;;;5111562;27;20433;-82
2022/05/19 13:13:27;;;;;;;7.13;3.40;;;40.60;1.00;;;;;;5098738;27;20828;-81
2022/05/19 13:15:57;;;;;;;10.20;3.93;;;40.00;1.00;;;;;;5107935;27;20897;-82
2022/05/19 13:18:33;;;;;;;8.03;3.50;;;39.60;1.00;;;;;;5109750;27;20499;-78
2022/05/19 13:21:07;;;;;;;8.93;3.73;;;39.90;1.00;;;;;;5113797;27;20436;-82
2022/05/19 13:23:42;;;;;;;7.40;4.67;;;39.60;1.00;;;;;;5106106;27;20490;-78
2022/05/19 13:26:30;;;;;;;7.00;3.60;;;39.80;1.00;;;;;;5097915;27;20469;-79
2022/05/19 13:32:05;;;;;;;9.10;4.40;;;39.60;1.00;;;;;;5104648;27;20441;-79
2022/05/19 13:34:52;;;;;;;8.10;5.23;;;39.30;1.00;;;;;;5107657;27;20566;-79
2022/05/19 13:37:33;;;;;;;8.97;3.80;;;39.20;1.00;;;;;;5107938;27;20450;-75
2022/05/19 13:40:14;;;;;;;6.83;3.97;;;39.10;1.00;;;;;;5112873;27;20679;-80
2022/05/19 13:42:48;;;;;;;11.17;4.60;;;39.20;1.00;;;;;;5100374;27;20434;-80
2022/05/19 13:45:23;;;;;;;7.40;3.47;;;39.80;1.00;;;;;;5114202;27;20436;-82
2022/05/19 13:47:52;;;;;;;6.97;3.17;;;39.80;1.00;;;;;;5108880;27;20410;-75
2022/05/19 13:50:32;;;;;;;6.70;3.20;;;40.10;1.00;;;;;;5110931;27;20450;-79
2022/05/19 13:53:07;;;;;;;7.03;3.20;;;40.60;1.00;;;;;;5105551;27;20432;-77
2022/05/19 13:55:42;;;;;;;7.20;2.90;;;40.60;1.00;;;;;;5109484;27;20443;-80
2022/05/19 13:58:23;;;;;;;6.70;3.10;;;40.20;1.00;;;;;;5112596;27;20509;-82
2022/05/19 14:00:50;;;;;;;8.03;3.50;;;39.90;1.00;;;;;;5111348;27;20441;-83
2022/05/19 14:03:24;;;;;;;9.57;3.33;;;40.40;1.00;;;;;;5106730;27;20441;-77